Station info - map view · info · telemetry · weather · raw · status · beacons · messages · bulletins · browse · moving · my account
Callsign, ship name or locator: Clear       
It is possible to search using wildcards (*?) after a prefix. Example: OH*
APRS station IW2GOB-9 - show graphs
Map loading...
Comment: Op. Maurizio - RCD710+IC2820+AVM6
Mic-E message: En route
Location: 45°18.41' N 9°29.23' E - locator JN45RH83LP - show map - static map
3.4 miles East bearing 85° from Lodi Vecchio, Provincia di Lodi, Lombardy, Italy [?]
4.2 miles East bearing 110° from Tavazzano con Villavesco (Villavesco), Provincia di Lodi, Lombardy, Italy
18.1 miles Southeast bearing 127° from Milan, Province of Milan, Lombardy, Italy
67.8 miles Northeast bearing 23° from Genova, Province of Genoa, Liguria, Italy
Last position: 2019-01-16 11:32:13 EST (3h26m ago)
2019-01-16 17:32:13 CET local time at Lodi Vecchio, Italy [?]
Altitude: 236 ft
Course: 358°
Speed: 5 MPH
Device: Kenwood: TM-D710 (rig)
Last path: IW2GOB-9>TU1XT1 via WIDE1-1,WIDE2-2,qAR,IR2AL (good)
Positions stored: 154108
Packet rate: 35 seconds between packets on average during 520 seconds.
Other SSIDs: IW2GOB IW2GOB-11 IW2GOB-12 IW2GOB-2 IW2GOB-3 IW2GOB-7 IW2GOB-8 IW2GOB-A IW2GOB-B IW2GOB-DG IW2GOB-DP IW2GOB-H0 IW2GOB-N IW2GOB-R IW2GOB-R0 IW2GOB-Y
Stations near current position of IW2GOB-9 - show more
callsign distance last heard - EST      callsign distance last heard - EST
IW2GOB-A20.7 yards 0°2019-01-16 11:32:23 IW2GOB-743.5 yards 18°2018-12-23 16:00:41
IR2AY C43.5 yards 18°2019-01-16 14:58:52 IR2AY-C43.5 yards 18°2019-01-16 14:39:02
IR2AY B43.5 yards 18°2019-01-16 14:39:12 IR2AY-B43.5 yards 18°2019-01-16 14:39:22
PS-IW2GOB43.5 yards 18°2019-01-16 14:05:10 IW2GOB-Y157.4 yards 321°2019-01-05 07:17:50
IZ2DDY-Y0.8 miles 70°2019-01-14 13:03:41 IU2IOL-H00.9 miles 101°2019-01-04 13:30:12
IK2PYX0.9 miles 74°2019-01-15 12:38:03 IK2PYX-60.9 miles 74°2019-01-15 11:00:15
PS-IK2PYX0.9 miles 77°2019-01-16 14:05:03 IK2PYX B0.9 miles 76°2019-01-16 14:50:25
IK2PYX-B0.9 miles 76°2019-01-16 14:50:35 IK2PYX-R0.9 miles 76°2019-01-16 14:47:38
IK2PYX-N0.9 miles 76°2019-01-07 06:18:33 IZ2DDY B0.9 miles 77°2019-01-16 14:57:25
IZ2DDY-B0.9 miles 77°2019-01-16 14:57:35 IZ2DDY-H00.9 miles 77°2019-01-12 11:32:43
Stations which heard IW2GOB-9 directly on radio –
callsign pkts first heard - EST last heard longest (tx => rx) longest at - EST
IR1AO 3 2019-01-04 00:30:32 2019-01-06 04:43:13 JN45SH > JN35XO 77.0 miles 287° 2019-01-04 13:44:21
IR2AO 106 2019-01-04 11:47:18 2019-01-16 11:31:04 JN45SH > JN45PM 18.4 miles 331° 2019-01-12 12:58:30
IR2UBX-11 51 2019-01-04 00:19:26 2019-01-15 14:01:31 JN45SH > JN45MQ 35.7 miles 321° 2019-01-15 13:55:51
IR4AN 38 2019-01-04 00:16:34 2019-01-12 11:23:36 JN45RM > JN54FK 89.5 miles 145° 2019-01-04 00:38:40
IK2CHZ-3 11 2019-01-04 11:44:25 2019-01-04 12:29:34 JN45RH > JN45UI 10.4 miles 68° 2019-01-04 12:25:07
IK2CHZ-11 14 2019-01-04 00:29:21 2019-01-16 02:05:53 JN45RJ > JN45UI 12.6 miles 103° 2019-01-04 00:29:21
IR2BZ 218 2019-01-04 00:17:05 2019-01-16 11:31:52 JN45PI > JN45XO 34.3 miles 63° 2019-01-12 09:09:16
IR2T 2 2019-01-07 14:48:00 2019-01-11 11:38:03 JN45SH > JN56EB 67.7 miles 37° 2019-01-07 14:48:00
IW2HUZ-11 62 2019-01-04 00:18:42 2019-01-15 14:02:51 JN45SH > JN45MU 45.3 miles 328° 2019-01-08 11:59:56
IW2GOB-2 301 2019-01-04 00:14:58 2019-01-16 11:23:33 JN45RI > JN45SH 4.3 miles 128° 2019-01-04 01:47:10
IQ2ER 14 2019-01-05 12:23:39 2019-01-12 08:46:14 JN45SH > JN45OT 37.4 miles 339° 2019-01-06 07:35:22
IR1UFB 2 2019-01-09 01:45:22 2019-01-09 01:54:52 JN45SH > JN35WD 79.5 miles 263° 2019-01-09 01:54:52
IR1DM 5 2019-01-04 00:30:31 2019-01-12 09:03:37 JN45RJ > JN44JS 54.7 miles 215° 2019-01-04 00:30:31
IR2S 286 2019-01-04 00:15:14 2019-01-16 11:32:02 JN45QI > JN55DQ 49.8 miles 64° 2019-01-12 09:03:36
IR2DF 60 2019-01-04 00:17:44 2019-01-12 11:23:36 JN45QI > JN55AS 43.1 miles 49° 2019-01-12 09:52:50
IK2ILW 32 2019-01-04 00:20:12 2019-01-16 11:27:32 JN45QH > JN45VV 44.5 miles 28° 2019-01-08 11:56:24
IW5CBL-15 3 2019-01-04 00:49:11 2019-01-08 12:01:10 JN45TQ > JN44WL 83.3 miles 173° 2019-01-04 00:57:14
IR2UFW 4 2019-01-12 09:02:04 2019-01-12 11:20:56 JN45SG > JN45LI 25.2 miles 284° 2019-01-12 11:20:56
IR2UGL-11 1 2019-01-11 11:47:55 2019-01-11 11:47:55 JN45SH > JN46OA 50.5 miles 342° 2019-01-11 11:47:55
IW2NSB 2 2019-01-04 00:57:52 2019-01-04 01:01:07 JN45UQ > JN45XV 20.0 miles 42° 2019-01-04 00:57:52
IR2BY 79 2019-01-04 00:16:34 2019-01-16 11:24:59 JN45QI > JN55BQ 43.5 miles 55° 2019-01-12 09:52:50
IR2UCL 52 2019-01-04 00:50:10 2019-01-15 12:29:47 JN45RG > JN45UP 27.2 miles 21° 2019-01-12 11:19:00
IR2UEZ 6 2019-01-04 00:25:34 2019-01-04 01:44:05 JN45RI > JN45JP 37.2 miles 302° 2019-01-04 01:44:05
IQ3VO 51 2019-01-04 00:17:05 2019-01-15 11:10:45 JN45QI > JN55MQ 86.1 miles 73° 2019-01-12 09:02:04
IR2E 1 2019-01-12 09:52:52 2019-01-12 09:52:52 JN45QI > JN56DI 83.0 miles 34° 2019-01-12 09:52:52
IU2GED 8 2019-01-04 01:01:07 2019-01-12 09:58:46 JN45QI > JN45XV 47.8 miles 36° 2019-01-12 09:52:50
IR2UGD 21 2019-01-04 00:17:44 2019-01-12 09:59:30 JN45SH > JN45PJ 12.1 miles 296° 2019-01-08 11:49:27
IR2DQ 4 2019-01-04 00:22:16 2019-01-14 01:55:03 JN45RI > JN55AD 31.0 miles 117° 2019-01-04 00:25:04
IZ2QYZ-10 6 2019-01-04 00:28:05 2019-01-12 11:19:22 JN45RG > JN45NJ 17.2 miles 296° 2019-01-12 11:19:22
IZ1TMF 2 2019-01-04 00:30:30 2019-01-04 00:34:48 JN45RK > JN35PA 108.8 miles 255° 2019-01-04 00:34:48
IR2AL 113 2019-01-04 00:17:05 2019-01-16 11:32:02 JN45SH > JN45OL 20.6 miles 303° 2019-01-11 11:43:38
IW2GOB-12 447 2019-01-04 00:15:56 2019-01-16 11:31:57 JN45UQ > JN45SH 26.9 miles 196° 2019-01-04 00:59:24
IZ2DDY 244 2019-01-04 11:44:15 2019-01-15 12:24:05 JN45PI > JN45SH 9.1 miles 112° 2019-01-12 09:45:11
IQ2DK 2 2019-01-06 07:34:22 2019-01-12 09:02:04 JN45SH > JN44MX 33.1 miles 227° 2019-01-06 07:34:22
IR2BP 101 2019-01-04 00:17:44 2019-01-16 11:25:14 JN45PI > JN55DN 48.0 miles 74° 2019-01-12 09:09:16

Only position packets which were originated by the station are shown here. The range statistics show some extra long hops, because some digipeaters do not correctly add themselves to the digipeater path. Please check the raw packets.
About this site
This page shows real-time information collected from the Automatic Position Reporting System Internet network (APRS-IS). APRS is used by amateur (ham) radio operators to transmit real-time position information, weather data, telemetry and messages over the radio. A vehicle equipped with a GPS receiver, a VHF transmitter or HF transceiver and a small computer device called a tracker transmits it's location, speed and course in a small data packet, which is then received by a nearby iGate receiving site which forwards the packet on the Internet. Systems connected to the Internet can send information on the APRS-IS without a radio transmitter, or collect and display information transmitted anywhere in the world.
FAQ · Blog · Discussion group · Linking to aprs.fi · AIS sites · Service status · Database statistics · Advertising on aprs.fi · Technical details · API · Change log · Planned changes · Credits and thanks · Terms Of Service · iPhone/iPad APRS